Main page
METAR-TAF:

METAR-TAF

Airports :

Jay Prakash Narayan International Airport

Patna, India

latitude: 25-36N, longitude: 085-06E, elevation: 51 m

Current weather observation

The report was made 44 minutes ago, at 20:00 UTC
Calm wind
Temperature 15°C
Humidity 88%
Pressure 1012 hPa
Visibility: 1200 m
mist

METAR: VEPT 012000Z 00000KT 1200 R25/2000 BR NSC 15/13 Q1012 NOSIG

Time: 02:14 (20:44 UTC)

Forecast

The report was made 44 minutes ago, at 20:00 UTC
Forecast valid from 01 at 21 UTC to 02 at 06 UTC
Wind kt from the North
Visibility: 0800 m
fog
Becoming
from 02 at 03 UTC to 02 at 05 UTC
Wind 5 kt from the West
Visibility: 2500 m
mist

TAF: VEPT 012000Z 0121/0206 00000KT 0800 FG NSC BECMG 0203/0205 27005KT 2500 BR

Weather observations and forecasts of more than 4000 airports (METAR and TAF reports).

The available stations are represented by yellow and red dots on the map.

Hover mouse over dot to see the name of the station.

Then click to see weather observations and forecasts.

To change the map : click on the green buttons with a black cross to zoom in, on the green button with a dash to zoom out, or on the green arrows for adjacent maps.


METAR-TAF: